sensor_id;sensor_type;location;lat;lon;timestamp;temperature;humidity
9640;DHT22;51745;50.872;4.732;2023-02-28T00:01:48;-0.80;99.90
9640;DHT22;51745;50.872;4.732;2023-02-28T00:04:36;-0.80;99.90
9640;DHT22;51745;50.872;4.732;2023-02-28T00:07:25;-1.10;99.90
9640;DHT22;51745;50.872;4.732;2023-02-28T00:10:16;-1.10;99.90
9640;DHT22;51745;50.872;4.732;2023-02-28T00:13:07;-1.00;99.90
9640;DHT22;51745;50.872;4.732;2023-02-28T00:15:59;-0.90;99.90
9640;DHT22;51745;50.872;4.732;2023-02-28T00:18:47;-1.00;99.90
9640;DHT22;51745;50.872;4.732;2023-02-28T00:21:35;-1.00;99.90
9640;DHT22;51745;50.872;4.732;2023-02-28T00:24:25;-0.30;99.90
9640;DHT22;51745;50.872;4.732;2023-02-28T00:27:13;-0.90;99.90
9640;DHT22;51745;50.872;4.732;2023-02-28T00:30:01;-0.80;99.90
9640;DHT22;51745;50.872;4.732;2023-02-28T00:32:49;-0.80;99.90
9640;DHT22;51745;50.872;4.732;2023-02-28T00:35:36;-0.80;99.90
9640;DHT22;51745;50.872;4.732;2023-02-28T00:38:26;-0.90;99.90
9640;DHT22;51745;50.872;4.732;2023-02-28T00:41:15;-0.80;99.90
9640;DHT22;51745;50.872;4.732;2023-02-28T00:44:05;-0.70;99.90
9640;DHT22;51745;50.872;4.732;2023-02-28T00:46:53;-0.80;99.90
9640;DHT22;51745;50.872;4.732;2023-02-28T00:49:45;-0.90;99.90
9640;DHT22;51745;50.872;4.732;2023-02-28T00:52:32;-0.90;99.90
9640;DHT22;51745;50.872;4.732;2023-02-28T00:55:20;-1.00;99.90
9640;DHT22;51745;50.872;4.732;2023-02-28T00:58:09;-1.00;99.90
9640;DHT22;51745;50.872;4.732;2023-02-28T01:00:56;-1.00;99.90
9640;DHT22;51745;50.872;4.732;2023-02-28T01:03:44;-1.10;99.90
9640;DHT22;51745;50.872;4.732;2023-02-28T01:06:32;-1.10;99.90
9640;DHT22;51745;50.872;4.732;2023-02-28T01:09:20;-0.90;99.90
9640;DHT22;51745;50.872;4.732;2023-02-28T01:12:07;-1.20;99.90
9640;DHT22;51745;50.872;4.732;2023-02-28T01:14:57;-1.30;99.90
9640;DHT22;51745;50.872;4.732;2023-02-28T01:17:45;-1.50;99.90
9640;DHT22;51745;50.872;4.732;2023-02-28T01:20:32;-1.10;99.90
9640;DHT22;51745;50.872;4.732;2023-02-28T01:23:20;-1.30;99.90
9640;DHT22;51745;50.872;4.732;2023-02-28T01:26:10;-1.20;99.90
9640;DHT22;51745;50.872;4.732;2023-02-28T01:28:59;-1.40;99.90
9640;DHT22;51745;50.872;4.732;2023-02-28T01:31:48;-1.20;99.90
9640;DHT22;51745;50.872;4.732;2023-02-28T01:34:36;-1.40;99.90
9640;DHT22;51745;50.872;4.732;2023-02-28T01:37:25;-1.50;99.90
9640;DHT22;51745;50.872;4.732;2023-02-28T01:40:13;-1.60;99.90
9640;DHT22;51745;50.872;4.732;2023-02-28T01:43:00;-1.60;99.90
9640;DHT22;51745;50.872;4.732;2023-02-28T01:45:48;-1.50;99.90
9640;DHT22;51745;50.872;4.732;2023-02-28T01:48:38;-1.40;99.90
9640;DHT22;51745;50.872;4.732;2023-02-28T01:51:29;-0.70;99.90
9640;DHT22;51745;50.872;4.732;2023-02-28T01:54:20;-1.20;99.90
9640;DHT22;51745;50.872;4.732;2023-02-28T01:57:09;-1.20;99.90
9640;DHT22;51745;50.872;4.732;2023-02-28T01:59:58;-1.20;99.90
9640;DHT22;51745;50.872;4.732;2023-02-28T02:02:58;-1.20;99.90
9640;DHT22;51745;50.872;4.732;2023-02-28T02:05:48;-1.20;99.90
9640;DHT22;51745;50.872;4.732;2023-02-28T02:08:35;-1.30;99.90
9640;DHT22;51745;50.872;4.732;2023-02-28T02:11:25;-1.40;99.90
9640;DHT22;51745;50.872;4.732;2023-02-28T02:14:24;-1.50;99.90
9640;DHT22;51745;50.872;4.732;2023-02-28T02:17:16;1.60;99.90
9640;DHT22;51745;50.872;4.732;2023-02-28T02:20:16;-1.50;99.90
9640;DHT22;51745;50.872;4.732;2023-02-28T02:32:24;-1.50;99.90
9640;DHT22;51745;50.872;4.732;2023-02-28T02:35:17;-1.40;99.90
9640;DHT22;51745;50.872;4.732;2023-02-28T02:38:11;0.60;99.90
9640;DHT22;51745;50.872;4.732;2023-02-28T02:41:04;-1.70;99.90
9640;DHT22;51745;50.872;4.732;2023-02-28T02:43:54;-1.70;99.90
9640;DHT22;51745;50.872;4.732;2023-02-28T02:46:44;-1.80;99.90
9640;DHT22;51745;50.872;4.732;2023-02-28T02:49:32;-1.90;99.90
9640;DHT22;51745;50.872;4.732;2023-02-28T02:52:22;-1.90;99.90
9640;DHT22;51745;50.872;4.732;2023-02-28T02:55:11;-2.00;99.90
9640;DHT22;51745;50.872;4.732;2023-02-28T02:58:01;-2.10;99.90
9640;DHT22;51745;50.872;4.732;2023-02-28T03:00:51;-1.90;99.90
9640;DHT22;51745;50.872;4.732;2023-02-28T03:03:40;-1.90;99.90
9640;DHT22;51745;50.872;4.732;2023-02-28T03:06:29;-1.80;99.90
9640;DHT22;51745;50.872;4.732;2023-02-28T03:09:18;-1.90;99.90
9640;DHT22;51745;50.872;4.732;2023-02-28T03:12:07;-2.00;99.90
9640;DHT22;51745;50.872;4.732;2023-02-28T03:14:56;-2.00;99.90
9640;DHT22;51745;50.872;4.732;2023-02-28T03:17:50;-2.10;99.90
9640;DHT22;51745;50.872;4.732;2023-02-28T03:20:44;-1.80;99.90
9640;DHT22;51745;50.872;4.732;2023-02-28T03:23:38;-2.20;99.90
9640;DHT22;51745;50.872;4.732;2023-02-28T03:26:28;-2.30;99.90
9640;DHT22;51745;50.872;4.732;2023-02-28T03:29:18;-2.30;99.90
9640;DHT22;51745;50.872;4.732;2023-02-28T03:32:11;-2.40;99.90
9640;DHT22;51745;50.872;4.732;2023-02-28T03:35:06;-2.40;99.90
9640;DHT22;51745;50.872;4.732;2023-02-28T03:37:58;-2.20;99.90
9640;DHT22;51745;50.872;4.732;2023-02-28T03:40:49;-2.10;99.90
9640;DHT22;51745;50.872;4.732;2023-02-28T03:43:40;-2.10;99.90
9640;DHT22;51745;50.872;4.732;2023-02-28T03:46:30;-2.00;99.90
9640;DHT22;51745;50.872;4.732;2023-02-28T03:49:20;-2.20;99.90
9640;DHT22;51745;50.872;4.732;2023-02-28T03:52:09;-1.80;99.90
9640;DHT22;51745;50.872;4.732;2023-02-28T03:54:58;-2.30;99.90
9640;DHT22;51745;50.872;4.732;2023-02-28T03:57:52;-2.30;99.90
9640;DHT22;51745;50.872;4.732;2023-02-28T04:00:45;-2.30;99.90
9640;DHT22;51745;50.872;4.732;2023-02-28T04:03:34;-2.30;99.90
9640;DHT22;51745;50.872;4.732;2023-02-28T04:06:22;-2.30;99.90
9640;DHT22;51745;50.872;4.732;2023-02-28T04:09:11;-2.30;99.90
9640;DHT22;51745;50.872;4.732;2023-02-28T04:11:58;-2.20;99.90
9640;DHT22;51745;50.872;4.732;2023-02-28T04:14:45;-2.10;99.90
9640;DHT22;51745;50.872;4.732;2023-02-28T04:17:35;-2.00;99.90
9640;DHT22;51745;50.872;4.732;2023-02-28T04:20:23;-2.00;99.90
9640;DHT22;51745;50.872;4.732;2023-02-28T04:23:11;-2.00;99.90
9640;DHT22;51745;50.872;4.732;2023-02-28T04:25:59;-1.90;99.90
9640;DHT22;51745;50.872;4.732;2023-02-28T04:28:47;-1.90;99.90
9640;DHT22;51745;50.872;4.732;2023-02-28T04:31:35;-1.50;99.90
9640;DHT22;51745;50.872;4.732;2023-02-28T04:34:25;-2.00;99.90
9640;DHT22;51745;50.872;4.732;2023-02-28T04:37:12;-1.90;99.90
9640;DHT22;51745;50.872;4.732;2023-02-28T04:40:03;-1.80;99.90
9640;DHT22;51745;50.872;4.732;2023-02-28T04:42:52;-1.80;99.90
9640;DHT22;51745;50.872;4.732;2023-02-28T04:45:40;-1.80;99.90
9640;DHT22;51745;50.872;4.732;2023-02-28T04:48:27;-1.80;99.90
9640;DHT22;51745;50.872;4.732;2023-02-28T04:51:18;-2.00;99.90
9640;DHT22;51745;50.872;4.732;2023-02-28T04:54:14;-2.00;99.90
9640;DHT22;51745;50.872;4.732;2023-02-28T04:57:02;-2.10;99.90
9640;DHT22;51745;50.872;4.732;2023-02-28T04:59:50;-1.90;99.90
9640;DHT22;51745;50.872;4.732;2023-02-28T05:02:37;-1.90;99.90
9640;DHT22;51745;50.872;4.732;2023-02-28T05:05:25;-1.90;99.90
9640;DHT22;51745;50.872;4.732;2023-02-28T05:08:15;-1.90;99.90
9640;DHT22;51745;50.872;4.732;2023-02-28T05:11:03;-1.80;99.90
9640;DHT22;51745;50.872;4.732;2023-02-28T05:13:51;-1.80;99.90
9640;DHT22;51745;50.872;4.732;2023-02-28T05:16:39;-1.70;99.90
9640;DHT22;51745;50.872;4.732;2023-02-28T05:19:27;-1.70;99.90
9640;DHT22;51745;50.872;4.732;2023-02-28T05:22:15;-1.60;99.90
9640;DHT22;51745;50.872;4.732;2023-02-28T05:25:08;-1.60;99.90
9640;DHT22;51745;50.872;4.732;2023-02-28T05:27:57;-1.60;99.90
9640;DHT22;51745;50.872;4.732;2023-02-28T05:30:45;-1.70;99.90
9640;DHT22;51745;50.872;4.732;2023-02-28T05:33:32;-1.60;99.90
9640;DHT22;51745;50.872;4.732;2023-02-28T05:36:21;-1.70;99.90
9640;DHT22;51745;50.872;4.732;2023-02-28T05:39:09;-1.70;99.90
9640;DHT22;51745;50.872;4.732;2023-02-28T05:42:00;-1.70;99.90
9640;DHT22;51745;50.872;4.732;2023-02-28T05:44:48;-4.00;99.90
9640;DHT22;51745;50.872;4.732;2023-02-28T05:47:36;-1.80;99.90
9640;DHT22;51745;50.872;4.732;2023-02-28T05:50:24;-1.80;99.90
9640;DHT22;51745;50.872;4.732;2023-02-28T05:53:12;-1.90;99.90
9640;DHT22;51745;50.872;4.732;2023-02-28T05:56:01;-2.00;99.90
9640;DHT22;51745;50.872;4.732;2023-02-28T05:58:50;-2.00;99.90
9640;DHT22;51745;50.872;4.732;2023-02-28T06:01:38;-2.10;99.90
9640;DHT22;51745;50.872;4.732;2023-02-28T06:04:27;-2.10;99.90
9640;DHT22;51745;50.872;4.732;2023-02-28T06:07:17;-2.10;99.90
9640;DHT22;51745;50.872;4.732;2023-02-28T06:10:06;-2.10;99.90
9640;DHT22;51745;50.872;4.732;2023-02-28T06:12:54;-2.20;99.90
9640;DHT22;51745;50.872;4.732;2023-02-28T06:15:43;-2.10;99.90
9640;DHT22;51745;50.872;4.732;2023-02-28T06:18:30;-2.00;99.90
9640;DHT22;51745;50.872;4.732;2023-02-28T06:21:18;-2.00;99.90
9640;DHT22;51745;50.872;4.732;2023-02-28T06:24:09;-2.00;99.90
9640;DHT22;51745;50.872;4.732;2023-02-28T06:26:58;-1.90;99.90
9640;DHT22;51745;50.872;4.732;2023-02-28T06:29:53;-2.00;99.90
9640;DHT22;51745;50.872;4.732;2023-02-28T06:32:42;-2.10;99.90
9640;DHT22;51745;50.872;4.732;2023-02-28T06:35:32;-2.10;99.90
9640;DHT22;51745;50.872;4.732;2023-02-28T06:38:20;-2.20;99.90
9640;DHT22;51745;50.872;4.732;2023-02-28T06:41:07;-2.30;99.90
9640;DHT22;51745;50.872;4.732;2023-02-28T06:43:56;-2.20;99.90
9640;DHT22;51745;50.872;4.732;2023-02-28T06:46:43;-2.20;99.90
9640;DHT22;51745;50.872;4.732;2023-02-28T06:49:33;-2.20;99.90
9640;DHT22;51745;50.872;4.732;2023-02-28T06:52:21;-2.20;99.90
9640;DHT22;51745;50.872;4.732;2023-02-28T06:55:09;-2.20;99.90
9640;DHT22;51745;50.872;4.732;2023-02-28T06:57:57;-2.30;99.90
9640;DHT22;51745;50.872;4.732;2023-02-28T07:00:45;-2.30;99.90
9640;DHT22;51745;50.872;4.732;2023-02-28T07:03:34;-2.40;99.90
9640;DHT22;51745;50.872;4.732;2023-02-28T07:06:23;-2.50;99.90
9640;DHT22;51745;50.872;4.732;2023-02-28T07:09:12;-2.40;99.90
9640;DHT22;51745;50.872;4.732;2023-02-28T07:12:00;-1.50;99.90
9640;DHT22;51745;50.872;4.732;2023-02-28T07:14:47;-2.50;99.90
9640;DHT22;51745;50.872;4.732;2023-02-28T07:17:35;-2.40;99.90
9640;DHT22;51745;50.872;4.732;2023-02-28T07:20:22;-2.30;99.90
9640;DHT22;51745;50.872;4.732;2023-02-28T07:23:12;-2.20;99.90
9640;DHT22;51745;50.872;4.732;2023-02-28T07:26:00;-2.10;99.90
9640;DHT22;51745;50.872;4.732;2023-02-28T07:28:48;-2.10;99.90
9640;DHT22;51745;50.872;4.732;2023-02-28T07:31:36;-1.80;99.90
9640;DHT22;51745;50.872;4.732;2023-02-28T07:34:24;-2.00;99.90
9640;DHT22;51745;50.872;4.732;2023-02-28T07:37:13;-2.00;99.90
9640;DHT22;51745;50.872;4.732;2023-02-28T07:40:02;-1.90;99.90
9640;DHT22;51745;50.872;4.732;2023-02-28T07:42:54;-3.40;99.90
9640;DHT22;51745;50.872;4.732;2023-02-28T07:45:42;-4.20;99.90
9640;DHT22;51745;50.872;4.732;2023-02-28T07:48:30;-1.70;99.90
9640;DHT22;51745;50.872;4.732;2023-02-28T07:51:18;-1.70;99.90
9640;DHT22;51745;50.872;4.732;2023-02-28T07:54:06;-1.40;99.90
9640;DHT22;51745;50.872;4.732;2023-02-28T07:56:56;-1.30;99.90
9640;DHT22;51745;50.872;4.732;2023-02-28T07:59:44;-1.20;99.90
9640;DHT22;51745;50.872;4.732;2023-02-28T08:02:35;0.10;99.90
9640;DHT22;51745;50.872;4.732;2023-02-28T08:05:22;-0.90;99.90
9640;DHT22;51745;50.872;4.732;2023-02-28T08:08:10;-0.80;99.90
9640;DHT22;51745;50.872;4.732;2023-02-28T08:10:58;-0.70;99.90
9640;DHT22;51745;50.872;4.732;2023-02-28T08:13:48;-0.70;99.90
9640;DHT22;51745;50.872;4.732;2023-02-28T08:16:35;-0.60;99.90
9640;DHT22;51745;50.872;4.732;2023-02-28T08:19:25;-0.70;99.90
9640;DHT22;51745;50.872;4.732;2023-02-28T08:22:14;-0.50;99.90
9640;DHT22;51745;50.872;4.732;2023-02-28T08:28:09;-0.20;99.90
9640;DHT22;51745;50.872;4.732;2023-02-28T08:30:58;-0.20;99.90
9640;DHT22;51745;50.872;4.732;2023-02-28T08:33:51;0.40;99.90
9640;DHT22;51745;50.872;4.732;2023-02-28T08:36:41;1.20;99.90
9640;DHT22;51745;50.872;4.732;2023-02-28T08:39:33;0.00;99.90
9640;DHT22;51745;50.872;4.732;2023-02-28T08:42:24;0.00;99.90
9640;DHT22;51745;50.872;4.732;2023-02-28T08:45:21;0.10;99.90
9640;DHT22;51745;50.872;4.732;2023-02-28T08:48:10;0.20;99.90
9640;DHT22;51745;50.872;4.732;2023-02-28T08:50:59;0.20;99.90
9640;DHT22;51745;50.872;4.732;2023-02-28T08:53:53;0.30;99.90
9640;DHT22;51745;50.872;4.732;2023-02-28T08:56:41;0.40;99.90
9640;DHT22;51745;50.872;4.732;2023-02-28T08:59:29;0.60;99.90
9640;DHT22;51745;50.872;4.732;2023-02-28T09:02:18;0.50;99.90
9640;DHT22;51745;50.872;4.732;2023-02-28T09:05:08;0.50;99.90
9640;DHT22;51745;50.872;4.732;2023-02-28T09:07:56;0.60;99.90
9640;DHT22;51745;50.872;4.732;2023-02-28T09:10:44;0.80;99.90
9640;DHT22;51745;50.872;4.732;2023-02-28T09:13:33;0.80;99.90
9640;DHT22;51745;50.872;4.732;2023-02-28T09:16:21;0.80;99.90
9640;DHT22;51745;50.872;4.732;2023-02-28T09:19:10;0.90;99.90
9640;DHT22;51745;50.872;4.732;2023-02-28T09:22:00;1.00;99.90
9640;DHT22;51745;50.872;4.732;2023-02-28T09:24:48;1.10;99.90
9640;DHT22;51745;50.872;4.732;2023-02-28T09:27:36;1.20;99.90
9640;DHT22;51745;50.872;4.732;2023-02-28T09:30:23;1.30;99.90
9640;DHT22;51745;50.872;4.732;2023-02-28T09:33:14;1.40;99.90
9640;DHT22;51745;50.872;4.732;2023-02-28T09:36:02;1.60;99.90
9640;DHT22;51745;50.872;4.732;2023-02-28T09:38:52;1.50;99.90
9640;DHT22;51745;50.872;4.732;2023-02-28T09:41:41;1.60;99.90
9640;DHT22;51745;50.872;4.732;2023-02-28T09:44:35;1.60;99.90
9640;DHT22;51745;50.872;4.732;2023-02-28T09:47:27;1.70;99.90
9640;DHT22;51745;50.872;4.732;2023-02-28T09:50:17;1.80;99.90
9640;DHT22;51745;50.872;4.732;2023-02-28T09:53:06;1.80;99.90
9640;DHT22;51745;50.872;4.732;2023-02-28T09:56:01;1.90;99.90
9640;DHT22;51745;50.872;4.732;2023-02-28T09:58:51;4.30;99.90
9640;DHT22;51745;50.872;4.732;2023-02-28T10:01:42;2.10;99.90
9640;DHT22;51745;50.872;4.732;2023-02-28T10:04:40;2.20;99.90
9640;DHT22;51745;50.872;4.732;2023-02-28T10:07:50;2.20;99.90
9640;DHT22;51745;50.872;4.732;2023-02-28T10:10:44;2.20;99.90
9640;DHT22;51745;50.872;4.732;2023-02-28T10:13:34;2.30;99.90
9640;DHT22;51745;50.872;4.732;2023-02-28T10:16:24;2.20;99.90
9640;DHT22;51745;50.872;4.732;2023-02-28T10:19:14;2.10;99.90
9640;DHT22;51745;50.872;4.732;2023-02-28T10:22:03;2.50;99.90
9640;DHT22;51745;50.872;4.732;2023-02-28T10:24:52;2.30;99.90
9640;DHT22;51745;50.872;4.732;2023-02-28T10:27:40;2.40;99.90
9640;DHT22;51745;50.872;4.732;2023-02-28T10:30:29;2.50;99.90
9640;DHT22;51745;50.872;4.732;2023-02-28T10:33:18;5.40;99.90
9640;DHT22;51745;50.872;4.732;2023-02-28T10:36:08;2.80;99.90
9640;DHT22;51745;50.872;4.732;2023-02-28T10:38:57;2.80;99.90
9640;DHT22;51745;50.872;4.732;2023-02-28T10:44:36;2.80;99.90
9640;DHT22;51745;50.872;4.732;2023-02-28T10:47:25;2.70;99.90
9640;DHT22;51745;50.872;4.732;2023-02-28T10:50:26;2.70;99.90
9640;DHT22;51745;50.872;4.732;2023-02-28T10:53:16;2.80;99.90
9640;DHT22;51745;50.872;4.732;2023-02-28T10:56:06;2.90;99.90
9640;DHT22;51745;50.872;4.732;2023-02-28T10:59:01;2.90;99.90
9640;DHT22;51745;50.872;4.732;2023-02-28T11:01:48;3.00;99.90
9640;DHT22;51745;50.872;4.732;2023-02-28T11:04:41;3.10;99.90
9640;DHT22;51745;50.872;4.732;2023-02-28T11:07:28;3.60;99.90
9640;DHT22;51745;50.872;4.732;2023-02-28T11:10:30;3.20;99.90
9640;DHT22;51745;50.872;4.732;2023-02-28T11:13:21;6.00;99.90
9640;DHT22;51745;50.872;4.732;2023-02-28T11:16:13;3.30;99.90
9640;DHT22;51745;50.872;4.732;2023-02-28T11:19:03;3.40;99.90
9640;DHT22;51745;50.872;4.732;2023-02-28T11:21:54;3.50;99.90
9640;DHT22;51745;50.872;4.732;2023-02-28T11:24:43;3.40;99.90
9640;DHT22;51745;50.872;4.732;2023-02-28T11:27:46;3.50;99.90
9640;DHT22;51745;50.872;4.732;2023-02-28T11:30:36;3.50;99.90
9640;DHT22;51745;50.872;4.732;2023-02-28T11:33:26;3.50;99.90
9640;DHT22;51745;50.872;4.732;2023-02-28T11:36:15;3.40;99.90
9640;DHT22;51745;50.872;4.732;2023-02-28T11:39:09;3.40;99.90
9640;DHT22;51745;50.872;4.732;2023-02-28T11:50:41;3.90;99.90
9640;DHT22;51745;50.872;4.732;2023-02-28T11:53:43;3.80;99.90
9640;DHT22;51745;50.872;4.732;2023-02-28T11:56:37;3.90;99.90
9640;DHT22;51745;50.872;4.732;2023-02-28T11:59:39;4.00;99.90
9640;DHT22;51745;50.872;4.732;2023-02-28T12:05:21;4.40;99.90
9640;DHT22;51745;50.872;4.732;2023-02-28T12:11:06;4.70;99.90
9640;DHT22;51745;50.872;4.732;2023-02-28T12:14:03;5.00;99.90
9640;DHT22;51745;50.872;4.732;2023-02-28T12:17:01;5.10;99.90
9640;DHT22;51745;50.872;4.732;2023-02-28T12:19:57;5.90;99.90
9640;DHT22;51745;50.872;4.732;2023-02-28T12:22:49;6.50;99.90
9640;DHT22;51745;50.872;4.732;2023-02-28T12:25:40;4.80;99.00
9640;DHT22;51745;50.872;4.732;2023-02-28T12:28:31;5.10;99.80
9640;DHT22;51745;50.872;4.732;2023-02-28T12:31:23;4.80;99.50
9640;DHT22;51745;50.872;4.732;2023-02-28T12:34:12;4.70;99.20
9640;DHT22;51745;50.872;4.732;2023-02-28T12:39:50;4.90;98.70
9640;DHT22;51745;50.872;4.732;2023-02-28T12:42:39;7.40;99.90
9640;DHT22;51745;50.872;4.732;2023-02-28T12:45:31;4.60;98.40
9640;DHT22;51745;50.872;4.732;2023-02-28T12:51:15;4.50;98.50
9640;DHT22;51745;50.872;4.732;2023-02-28T12:54:06;4.80;99.10
9640;DHT22;51745;50.872;4.732;2023-02-28T12:59:50;4.40;98.10
9640;DHT22;51745;50.872;4.732;2023-02-28T13:05:29;4.70;97.90
9640;DHT22;51745;50.872;4.732;2023-02-28T13:08:23;4.40;97.50
9640;DHT22;51745;50.872;4.732;2023-02-28T13:11:28;4.60;98.10
9640;DHT22;51745;50.872;4.732;2023-02-28T13:14:22;4.50;97.20
9640;DHT22;51745;50.872;4.732;2023-02-28T13:17:11;4.60;97.80
9640;DHT22;51745;50.872;4.732;2023-02-28T13:20:00;4.90;98.70
9640;DHT22;51745;50.872;4.732;2023-02-28T13:22:48;5.00;97.70
9640;DHT22;51745;50.872;4.732;2023-02-28T13:50:15;5.50;95.70
9640;DHT22;51745;50.872;4.732;2023-02-28T13:53:18;5.40;96.00
9640;DHT22;51745;50.872;4.732;2023-02-28T13:56:23;5.40;96.20
9640;DHT22;51745;50.872;4.732;2023-02-28T13:59:16;5.30;95.60
9640;DHT22;51745;50.872;4.732;2023-02-28T14:02:13;5.40;95.90
9640;DHT22;51745;50.872;4.732;2023-02-28T14:07:54;5.40;95.20
9640;DHT22;51745;50.872;4.732;2023-02-28T14:10:44;5.50;94.90
9640;DHT22;51745;50.872;4.732;2023-02-28T14:13:42;5.40;95.00
9640;DHT22;51745;50.872;4.732;2023-02-28T14:16:37;5.70;95.40
9640;DHT22;51745;50.872;4.732;2023-02-28T14:19:27;5.80;95.20
9640;DHT22;51745;50.872;4.732;2023-02-28T14:22:18;6.00;95.80
9640;DHT22;51745;50.872;4.732;2023-02-28T14:25:11;6.20;94.90
9640;DHT22;51745;50.872;4.732;2023-02-28T14:28:07;6.60;95.30
9640;DHT22;51745;50.872;4.732;2023-02-28T14:31:00;6.90;94.60
9640;DHT22;51745;50.872;4.732;2023-02-28T14:33:57;4.70;93.50
9640;DHT22;51745;50.872;4.732;2023-02-28T14:36:46;6.60;94.50
9640;DHT22;51745;50.872;4.732;2023-02-28T14:39:34;6.40;95.00
9640;DHT22;51745;50.872;4.732;2023-02-28T14:42:31;6.30;95.10
9640;DHT22;51745;50.872;4.732;2023-02-28T14:45:19;6.60;94.30
9640;DHT22;51745;50.872;4.732;2023-02-28T14:48:09;8.90;96.50
9640;DHT22;51745;50.872;4.732;2023-02-28T14:50:58;6.10;93.90
9640;DHT22;51745;50.872;4.732;2023-02-28T14:53:47;6.50;94.00
9640;DHT22;51745;50.872;4.732;2023-02-28T14:56:37;6.40;94.50
9640;DHT22;51745;50.872;4.732;2023-02-28T14:59:29;7.00;96.30
9640;DHT22;51745;50.872;4.732;2023-02-28T15:02:19;6.60;95.00
9640;DHT22;51745;50.872;4.732;2023-02-28T15:05:18;9.20;96.10
9640;DHT22;51745;50.872;4.732;2023-02-28T15:08:11;6.70;94.70
9640;DHT22;51745;50.872;4.732;2023-02-28T15:11:00;6.20;94.00
9640;DHT22;51745;50.872;4.732;2023-02-28T15:13:50;5.80;94.50
9640;DHT22;51745;50.872;4.732;2023-02-28T15:16:41;5.70;94.90
9640;DHT22;51745;50.872;4.732;2023-02-28T15:19:31;6.00;94.60
9640;DHT22;51745;50.872;4.732;2023-02-28T15:22:20;5.40;95.70
9640;DHT22;51745;50.872;4.732;2023-02-28T15:25:12;5.20;95.60
9640;DHT22;51745;50.872;4.732;2023-02-28T15:28:00;7.40;97.50
9640;DHT22;51745;50.872;4.732;2023-02-28T15:30:52;7.30;98.30
9640;DHT22;51745;50.872;4.732;2023-02-28T15:33:53;4.90;96.20
9640;DHT22;51745;50.872;4.732;2023-02-28T15:36:41;6.60;97.20
9640;DHT22;51745;50.872;4.732;2023-02-28T15:39:29;7.70;99.50
9640;DHT22;51745;50.872;4.732;2023-02-28T15:42:17;4.70;97.20
9640;DHT22;51745;50.872;4.732;2023-02-28T15:45:06;4.80;97.30
9640;DHT22;51745;50.872;4.732;2023-02-28T15:48:19;4.70;97.30
9640;DHT22;51745;50.872;4.732;2023-02-28T15:51:12;4.70;97.80
9640;DHT22;51745;50.872;4.732;2023-02-28T15:54:02;7.20;99.10
9640;DHT22;51745;50.872;4.732;2023-02-28T15:56:52;4.70;97.80
9640;DHT22;51745;50.872;4.732;2023-02-28T15:59:42;4.70;98.40
9640;DHT22;51745;50.872;4.732;2023-02-28T16:02:32;4.50;99.30
9640;DHT22;51745;50.872;4.732;2023-02-28T16:05:22;4.70;98.50
9640;DHT22;51745;50.872;4.732;2023-02-28T16:08:19;4.50;98.70
9640;DHT22;51745;50.872;4.732;2023-02-28T16:11:08;4.60;98.80
9640;DHT22;51745;50.872;4.732;2023-02-28T16:13:58;4.50;98.40
9640;DHT22;51745;50.872;4.732;2023-02-28T16:16:46;4.60;99.10
9640;DHT22;51745;50.872;4.732;2023-02-28T16:19:35;4.40;97.80
9640;DHT22;51745;50.872;4.732;2023-02-28T16:22:23;4.40;97.50
9640;DHT22;51745;50.872;4.732;2023-02-28T16:25:13;4.40;98.00
9640;DHT22;51745;50.872;4.732;2023-02-28T16:28:01;4.30;98.30
9640;DHT22;51745;50.872;4.732;2023-02-28T16:30:50;4.30;98.30
9640;DHT22;51745;50.872;4.732;2023-02-28T16:33:38;4.20;98.80
9640;DHT22;51745;50.872;4.732;2023-02-28T16:36:25;4.20;99.30
9640;DHT22;51745;50.872;4.732;2023-02-28T16:39:13;2.10;98.40
9640;DHT22;51745;50.872;4.732;2023-02-28T16:42:02;4.10;99.60
9640;DHT22;51745;50.872;4.732;2023-02-28T16:44:50;3.90;99.60
9640;DHT22;51745;50.872;4.732;2023-02-28T16:47:38;4.00;99.90
9640;DHT22;51745;50.872;4.732;2023-02-28T16:50:27;3.90;99.90
9640;DHT22;51745;50.872;4.732;2023-02-28T16:53:16;3.80;99.90
9640;DHT22;51745;50.872;4.732;2023-02-28T16:56:05;3.80;99.90
9640;DHT22;51745;50.872;4.732;2023-02-28T16:58:55;3.80;99.90
9640;DHT22;51745;50.872;4.732;2023-02-28T17:01:45;4.20;99.90
9640;DHT22;51745;50.872;4.732;2023-02-28T17:04:34;3.40;99.90
9640;DHT22;51745;50.872;4.732;2023-02-28T17:07:21;3.70;99.90
9640;DHT22;51745;50.872;4.732;2023-02-28T17:10:12;3.50;99.90
9640;DHT22;51745;50.872;4.732;2023-02-28T17:13:00;4.40;99.90
9640;DHT22;51745;50.872;4.732;2023-02-28T17:16:01;4.20;99.90
9640;DHT22;51745;50.872;4.732;2023-02-28T17:18:49;3.40;99.90
9640;DHT22;51745;50.872;4.732;2023-02-28T17:21:40;3.00;99.90
9640;DHT22;51745;50.872;4.732;2023-02-28T17:24:28;2.80;99.90
9640;DHT22;51745;50.872;4.732;2023-02-28T17:27:19;2.90;99.90
9640;DHT22;51745;50.872;4.732;2023-02-28T17:30:13;2.50;99.90
9640;DHT22;51745;50.872;4.732;2023-02-28T17:33:06;2.40;99.90
9640;DHT22;51745;50.872;4.732;2023-02-28T17:35:53;2.40;99.90
9640;DHT22;51745;50.872;4.732;2023-02-28T17:38:42;2.40;99.90
9640;DHT22;51745;50.872;4.732;2023-02-28T17:41:33;2.20;99.90
9640;DHT22;51745;50.872;4.732;2023-02-28T17:44:21;2.20;99.90
9640;DHT22;51745;50.872;4.732;2023-02-28T17:50:28;2.40;99.90
9640;DHT22;51745;50.872;4.732;2023-02-28T18:00:15;1.30;99.90
9640;DHT22;51745;50.872;4.732;2023-02-28T18:03:49;2.60;99.90
9640;DHT22;51745;50.872;4.732;2023-02-28T18:06:39;5.10;99.90
9640;DHT22;51745;50.872;4.732;2023-02-28T18:09:41;1.80;99.90
9640;DHT22;51745;50.872;4.732;2023-02-28T18:12:33;3.20;99.90
9640;DHT22;51745;50.872;4.732;2023-02-28T18:15:28;2.10;99.90
9640;DHT22;51745;50.872;4.732;2023-02-28T18:18:17;1.50;99.90
9640;DHT22;51745;50.872;4.732;2023-02-28T18:21:05;1.40;99.90
9640;DHT22;51745;50.872;4.732;2023-02-28T18:23:54;1.20;99.90
9640;DHT22;51745;50.872;4.732;2023-02-28T18:26:41;1.10;99.90
9640;DHT22;51745;50.872;4.732;2023-02-28T18:29:29;1.10;99.90
9640;DHT22;51745;50.872;4.732;2023-02-28T18:32:20;0.90;99.90
9640;DHT22;51745;50.872;4.732;2023-02-28T18:35:09;1.00;99.90
9640;DHT22;51745;50.872;4.732;2023-02-28T18:37:56;0.90;99.90
9640;DHT22;51745;50.872;4.732;2023-02-28T18:40:52;1.20;99.90
9640;DHT22;51745;50.872;4.732;2023-02-28T18:43:40;0.70;99.90
9640;DHT22;51745;50.872;4.732;2023-02-28T18:46:28;0.60;99.90
9640;DHT22;51745;50.872;4.732;2023-02-28T18:49:16;0.60;99.90
9640;DHT22;51745;50.872;4.732;2023-02-28T18:52:05;0.40;99.90
9640;DHT22;51745;50.872;4.732;2023-02-28T18:54:53;0.30;99.90
9640;DHT22;51745;50.872;4.732;2023-02-28T18:57:42;0.40;99.90
9640;DHT22;51745;50.872;4.732;2023-02-28T19:00:29;0.00;99.90
9640;DHT22;51745;50.872;4.732;2023-02-28T19:03:17;-0.10;99.90
9640;DHT22;51745;50.872;4.732;2023-02-28T19:06:06;-0.10;99.90
9640;DHT22;51745;50.872;4.732;2023-02-28T19:08:54;-0.10;99.90
9640;DHT22;51745;50.872;4.732;2023-02-28T19:11:43;0.10;99.90
9640;DHT22;51745;50.872;4.732;2023-02-28T19:14:32;0.10;99.90
9640;DHT22;51745;50.872;4.732;2023-02-28T19:17:19;0.30;99.90
9640;DHT22;51745;50.872;4.732;2023-02-28T19:20:08;0.30;99.90
9640;DHT22;51745;50.872;4.732;2023-02-28T19:22:56;0.30;99.90
9640;DHT22;51745;50.872;4.732;2023-02-28T19:25:46;0.30;99.90
9640;DHT22;51745;50.872;4.732;2023-02-28T19:28:34;0.20;99.90
9640;DHT22;51745;50.872;4.732;2023-02-28T19:31:24;0.30;99.90
9640;DHT22;51745;50.872;4.732;2023-02-28T19:34:12;0.20;99.90
9640;DHT22;51745;50.872;4.732;2023-02-28T19:36:59;0.20;99.90
9640;DHT22;51745;50.872;4.732;2023-02-28T19:39:47;0.10;99.90
9640;DHT22;51745;50.872;4.732;2023-02-28T19:42:35;0.20;99.90